createdAt,value
2018-08-18T00:00:19.015Z,1017.35
2018-08-18T00:01:18.979Z,1017.33
2018-08-18T00:02:18.877Z,1017.34
2018-08-18T00:03:18.781Z,1017.37
2018-08-18T00:04:18.707Z,1017.37
2018-08-18T00:05:18.628Z,1017.36
2018-08-18T00:06:18.569Z,1017.33
2018-08-18T00:07:18.481Z,1017.33
2018-08-18T00:08:18.383Z,1017.34
2018-08-18T00:09:18.330Z,1017.35
2018-08-18T00:10:18.226Z,1017.32
2018-08-18T00:11:18.153Z,1017.37
2018-08-18T00:12:18.062Z,1017.34
2018-08-18T00:15:00.365Z,1017.40
2018-08-18T00:16:00.264Z,1017.39
2018-08-18T00:17:00.195Z,1017.41
2018-08-18T00:19:42.344Z,1017.43
2018-08-18T00:20:42.270Z,1017.41
2018-08-18T00:21:42.180Z,1017.40
2018-08-18T00:22:43.137Z,1017.41
2018-08-18T00:23:42.029Z,1017.38
2018-08-18T00:26:23.840Z,1017.37
2018-08-18T00:27:23.770Z,1017.41
2018-08-18T00:28:23.710Z,1017.42
2018-08-18T00:31:05.839Z,1017.46
2018-08-18T00:32:05.772Z,1017.45
2018-08-18T00:33:05.705Z,1017.41
2018-08-18T00:34:05.616Z,1017.41
2018-08-18T00:35:05.527Z,1017.40
2018-08-18T00:36:05.443Z,1017.41
2018-08-18T00:37:05.360Z,1017.41
2018-08-18T00:38:05.303Z,1017.36
2018-08-18T00:39:05.221Z,1017.38
2018-08-18T00:40:05.136Z,1017.41
2018-08-18T00:41:05.056Z,1017.42
2018-08-18T00:42:04.974Z,1017.43
2018-08-18T00:43:04.911Z,1017.44
2018-08-18T00:44:04.814Z,1017.45
2018-08-18T00:45:04.730Z,1017.42
2018-08-18T00:46:04.663Z,1017.46
2018-08-18T00:47:04.582Z,1017.45
2018-08-18T00:48:04.529Z,1017.47
2018-08-18T00:49:04.429Z,1017.46
2018-08-18T00:51:46.349Z,1017.44
2018-08-18T00:54:28.366Z,1017.43
2018-08-18T00:55:28.272Z,1017.48
2018-08-18T00:56:28.197Z,1017.51
2018-08-18T00:59:10.368Z,1017.48
2018-08-18T01:00:10.298Z,1017.49
2018-08-18T01:01:10.187Z,1017.47
2018-08-18T01:02:10.112Z,1017.44
2018-08-18T01:03:10.039Z,1017.44
2018-08-18T01:04:09.980Z,1017.45
2018-08-18T01:05:09.890Z,1017.46
2018-08-18T01:07:51.848Z,1017.52
2018-08-18T01:08:51.815Z,1017.50
2018-08-18T01:09:51.695Z,1017.47
2018-08-18T01:10:51.681Z,1017.56
2018-08-18T01:11:51.564Z,1017.54
2018-08-18T01:12:51.518Z,1017.50
2018-08-18T01:13:51.503Z,1017.57
2018-08-18T01:14:51.380Z,1017.52
2018-08-18T01:15:51.263Z,1017.52
2018-08-18T01:16:51.142Z,1017.51
2018-08-18T01:17:51.064Z,1017.51
2018-08-18T01:18:50.993Z,1017.54
2018-08-18T01:19:50.930Z,1017.54
2018-08-18T01:20:50.830Z,1017.54
2018-08-18T01:21:50.729Z,1017.57
2018-08-18T01:24:32.895Z,1017.58
2018-08-18T01:25:32.782Z,1017.59
2018-08-18T01:26:32.721Z,1017.59
2018-08-18T01:27:32.629Z,1017.56
2018-08-18T01:28:32.538Z,1017.59
2018-08-18T01:29:32.496Z,1017.60
2018-08-18T01:30:32.378Z,1017.57
2018-08-18T01:31:32.305Z,1017.60
2018-08-18T01:32:32.218Z,1017.61
2018-08-18T01:35:14.391Z,1017.65
2018-08-18T01:36:14.287Z,1017.67
2018-08-18T01:37:14.202Z,1017.64
2018-08-18T01:38:14.127Z,1017.65
2018-08-18T01:39:14.038Z,1017.66
2018-08-18T01:40:13.966Z,1017.68
2018-08-18T01:41:13.909Z,1017.67
2018-08-18T01:42:13.805Z,1017.65
2018-08-18T01:43:13.726Z,1017.68
2018-08-18T01:45:55.890Z,1017.69
2018-08-18T01:46:55.789Z,1017.71
2018-08-18T01:47:55.716Z,1017.71
2018-08-18T01:50:37.934Z,1017.78
2018-08-18T01:51:37.784Z,1017.81
2018-08-18T01:52:37.707Z,1017.78
2018-08-18T01:53:37.650Z,1017.82
2018-08-18T01:54:37.557Z,1017.81
2018-08-18T01:55:37.486Z,1017.77
2018-08-18T01:56:37.388Z,1017.80
2018-08-18T01:57:37.332Z,1017.78
2018-08-18T01:58:37.233Z,1017.76
2018-08-18T01:59:37.153Z,1017.78
2018-08-18T02:00:37.060Z,1017.78
2018-08-18T02:01:38.010Z,1017.79
2018-08-18T02:02:36.905Z,1017.78
2018-08-18T02:03:36.839Z,1017.79
2018-08-18T02:04:36.741Z,1017.77
2018-08-18T02:05:36.682Z,1017.78
2018-08-18T02:06:36.586Z,1017.79
2018-08-18T02:07:36.547Z,1017.78
2018-08-18T02:08:36.433Z,1017.81
2018-08-18T02:09:36.351Z,1017.78
2018-08-18T02:10:36.261Z,1017.78
2018-08-18T02:13:18.388Z,1017.75
2018-08-18T02:14:18.290Z,1017.69
2018-08-18T02:15:18.223Z,1017.73
2018-08-18T02:16:18.135Z,1017.74
2018-08-18T02:17:18.048Z,1017.70
2018-08-18T02:18:18.017Z,1017.72
2018-08-18T02:19:17.903Z,1017.71
2018-08-18T02:20:17.815Z,1017.74
2018-08-18T02:21:17.744Z,1017.72
2018-08-18T02:22:17.654Z,1017.72
2018-08-18T02:23:17.576Z,1017.72
2018-08-18T02:24:17.520Z,1017.71
2018-08-18T02:25:17.415Z,1017.69
2018-08-18T02:27:59.393Z,1017.68
2018-08-18T02:28:59.317Z,1017.66
2018-08-18T02:29:59.229Z,1017.69
2018-08-18T02:30:59.150Z,1017.63
2018-08-18T02:31:59.066Z,1017.68
2018-08-18T02:32:58.984Z,1017.65
2018-08-18T02:33:58.916Z,1017.64
2018-08-18T02:34:58.814Z,1017.68
2018-08-18T02:35:58.745Z,1017.65
2018-08-18T02:36:58.678Z,1017.67
2018-08-18T02:37:58.571Z,1017.66
2018-08-18T02:38:58.596Z,1017.67
2018-08-18T02:39:58.439Z,1017.68
2018-08-18T02:40:58.334Z,1017.73
2018-08-18T02:41:58.274Z,1017.74
2018-08-18T02:42:58.185Z,1017.78
2018-08-18T02:43:58.133Z,1017.75
2018-08-18T02:44:58.039Z,1017.74
2018-08-18T02:45:57.941Z,1017.77
2018-08-18T02:46:57.856Z,1017.75
2018-08-18T02:47:57.779Z,1017.76
2018-08-18T02:48:57.703Z,1017.73
2018-08-18T02:49:57.638Z,1017.76
2018-08-18T02:52:39.875Z,1017.75
2018-08-18T02:55:21.911Z,1017.77
2018-08-18T02:58:03.888Z,1017.77
2018-08-18T02:59:03.819Z,1017.80
2018-08-18T03:00:03.746Z,1017.74
2018-08-18T03:02:45.882Z,1017.77
2018-08-18T03:03:45.813Z,1017.77
2018-08-18T03:04:45.739Z,1017.78
2018-08-18T03:07:27.887Z,1017.83
2018-08-18T03:10:09.908Z,1017.82
2018-08-18T03:11:09.810Z,1017.78
2018-08-18T03:12:09.732Z,1017.80
2018-08-18T03:13:09.656Z,1017.80
2018-08-18T03:14:09.570Z,1017.81
2018-08-18T03:15:10.508Z,1017.83
2018-08-18T03:16:09.411Z,1017.82
2018-08-18T03:17:09.347Z,1017.80
2018-08-18T03:18:09.245Z,1017.85
2018-08-18T03:19:09.177Z,1017.83
2018-08-18T03:20:09.104Z,1017.85
2018-08-18T03:21:09.011Z,1017.86
2018-08-18T03:22:08.934Z,1017.83
2018-08-18T03:23:08.882Z,1017.85
2018-08-18T03:24:08.762Z,1017.87
2018-08-18T03:25:08.712Z,1017.88
2018-08-18T03:26:08.609Z,1017.85
2018-08-18T03:27:08.536Z,1017.88
2018-08-18T03:28:08.443Z,1017.86
2018-08-18T03:29:08.436Z,1017.89
2018-08-18T03:30:08.313Z,1017.85
2018-08-18T03:32:50.400Z,1017.84
2018-08-18T03:33:50.344Z,1017.87
2018-08-18T03:34:50.225Z,1017.87
2018-08-18T03:35:51.186Z,1017.86
2018-08-18T03:36:50.092Z,1017.89
2018-08-18T03:37:50.200Z,1017.86
2018-08-18T03:38:50.194Z,1017.91
2018-08-18T03:39:50.506Z,1017.94
2018-08-18T03:40:49.772Z,1017.90
2018-08-18T03:41:50.702Z,1017.90
2018-08-18T03:42:49.596Z,1017.93
2018-08-18T03:43:49.523Z,1017.93
2018-08-18T03:44:49.423Z,1017.94
2018-08-18T03:45:49.349Z,1017.91
2018-08-18T03:46:49.288Z,1017.94
2018-08-18T03:47:49.190Z,1017.93
2018-08-18T03:48:49.109Z,1017.91
2018-08-18T03:49:49.039Z,1017.93
2018-08-18T03:50:48.958Z,1017.95
2018-08-18T03:51:48.889Z,1017.98
2018-08-18T03:52:48.787Z,1017.94
2018-08-18T03:53:48.721Z,1017.95
2018-08-18T03:54:48.636Z,1017.95
2018-08-18T03:55:48.561Z,1017.98
2018-08-18T03:56:48.488Z,1018.00
2018-08-18T03:57:48.388Z,1018.00
2018-08-18T03:58:48.311Z,1017.99
2018-08-18T03:59:48.227Z,1017.99
2018-08-18T04:00:48.153Z,1017.97
2018-08-18T04:01:48.153Z,1018.01
2018-08-18T04:02:48.106Z,1018.04
2018-08-18T04:03:47.919Z,1018.04
2018-08-18T04:04:47.818Z,1018.05
2018-08-18T04:05:47.761Z,1018.06
2018-08-18T04:06:47.664Z,1018.05
2018-08-18T04:07:47.613Z,1018.07
2018-08-18T04:08:47.500Z,1018.06
2018-08-18T04:09:47.432Z,1018.03
2018-08-18T04:10:47.352Z,1018.07
2018-08-18T04:11:47.307Z,1018.06
2018-08-18T04:12:47.207Z,1018.07
2018-08-18T04:15:29.404Z,1018.07
2018-08-18T04:16:29.343Z,1018.09
2018-08-18T04:17:29.252Z,1018.10
2018-08-18T04:18:29.189Z,1018.08
2018-08-18T04:19:29.103Z,1018.11
2018-08-18T04:20:29.025Z,1018.10
2018-08-18T04:21:28.922Z,1018.09
2018-08-18T04:22:28.843Z,1018.10
2018-08-18T04:23:28.789Z,1018.11
2018-08-18T04:24:28.679Z,1018.11
2018-08-18T04:25:28.599Z,1018.07
2018-08-18T04:28:10.932Z,1018.15
2018-08-18T04:30:52.908Z,1018.18
2018-08-18T04:31:52.828Z,1018.24
2018-08-18T04:32:52.755Z,1018.17
2018-08-18T04:33:52.675Z,1018.18
2018-08-18T04:34:52.612Z,1018.17
2018-08-18T04:35:52.540Z,1018.20
2018-08-18T04:36:52.427Z,1018.22
2018-08-18T04:37:52.351Z,1018.18
2018-08-18T04:38:52.277Z,1018.19
2018-08-18T04:39:52.212Z,1018.20
2018-08-18T04:40:52.126Z,1018.16
2018-08-18T04:41:52.028Z,1018.19
2018-08-18T04:42:51.939Z,1018.18
2018-08-18T04:45:34.005Z,1018.18
2018-08-18T04:46:33.833Z,1018.17
2018-08-18T04:47:33.745Z,1018.16
2018-08-18T04:50:15.928Z,1018.19
2018-08-18T04:51:16.850Z,1018.21
2018-08-18T04:52:15.780Z,1018.16
2018-08-18T04:53:15.675Z,1018.15
2018-08-18T04:54:15.592Z,1018.19
2018-08-18T04:56:57.483Z,1018.25
2018-08-18T04:57:57.331Z,1018.26
2018-08-18T04:58:57.252Z,1018.25
2018-08-18T04:59:58.185Z,1018.23
2018-08-18T05:00:57.105Z,1018.26
2018-08-18T05:03:38.907Z,1018.26
2018-08-18T05:04:38.832Z,1018.25
2018-08-18T05:05:38.762Z,1018.25
2018-08-18T05:08:20.910Z,1018.29
2018-08-18T05:11:02.928Z,1018.34
2018-08-18T05:12:02.856Z,1018.31
2018-08-18T05:13:02.754Z,1018.33
2018-08-18T05:14:02.674Z,1018.38
2018-08-18T05:15:02.590Z,1018.35
2018-08-18T05:16:03.525Z,1018.34
2018-08-18T05:17:02.432Z,1018.40
2018-08-18T05:18:02.365Z,1018.40
2018-08-18T05:19:02.416Z,1018.35
2018-08-18T05:20:02.199Z,1018.38
2018-08-18T05:21:02.131Z,1018.37
2018-08-18T05:22:02.037Z,1018.40
2018-08-18T05:23:01.955Z,1018.43
2018-08-18T05:24:01.878Z,1018.43
2018-08-18T05:25:01.785Z,1018.42
2018-08-18T05:26:02.726Z,1018.45
2018-08-18T05:27:01.651Z,1018.45
2018-08-18T05:28:01.553Z,1018.44
2018-08-18T05:29:01.464Z,1018.42
2018-08-18T05:30:01.393Z,1018.45
2018-08-18T05:31:01.321Z,1018.50
2018-08-18T05:32:01.277Z,1018.51
2018-08-18T05:33:01.162Z,1018.56
2018-08-18T05:35:43.427Z,1018.54
2018-08-18T05:36:43.404Z,1018.50
2018-08-18T05:37:43.274Z,1018.50
2018-08-18T05:40:25.414Z,1018.49
2018-08-18T05:41:25.367Z,1018.52
2018-08-18T05:42:25.255Z,1018.45
2018-08-18T05:43:25.193Z,1018.48
2018-08-18T05:44:25.102Z,1018.51
2018-08-18T05:45:25.024Z,1018.43
2018-08-18T05:46:24.964Z,1018.50
2018-08-18T05:47:25.889Z,1018.51
2018-08-18T05:48:24.786Z,1018.52
2018-08-18T05:51:06.927Z,1018.49
2018-08-18T05:52:06.847Z,1018.52
2018-08-18T05:53:06.786Z,1018.56
2018-08-18T05:54:06.685Z,1018.54
2018-08-18T05:55:06.624Z,1018.57
2018-08-18T05:56:06.529Z,1018.54
2018-08-18T05:57:06.442Z,1018.56
2018-08-18T05:58:07.388Z,1018.57
2018-08-18T05:59:06.277Z,1018.59
2018-08-18T06:00:06.211Z,1018.61
2018-08-18T06:01:06.125Z,1018.62
2018-08-18T06:02:06.041Z,1018.63
2018-08-18T06:03:05.990Z,1018.62
2018-08-18T06:04:05.909Z,1018.59
2018-08-18T06:05:05.809Z,1018.68
2018-08-18T06:07:47.945Z,1018.77
2018-08-18T06:08:47.868Z,1018.91
2018-08-18T06:09:47.767Z,1018.97
2018-08-18T06:10:47.691Z,1018.95
2018-08-18T06:11:47.620Z,1018.99
2018-08-18T06:12:47.535Z,1019.01
2018-08-18T06:13:47.469Z,1019.04
2018-08-18T06:14:47.377Z,1019.09
2018-08-18T06:15:47.289Z,1019.17
2018-08-18T06:16:47.235Z,1019.22
2018-08-18T06:17:47.124Z,1019.11
2018-08-18T06:18:47.069Z,1019.17
2018-08-18T06:19:46.977Z,1019.29
2018-08-18T06:20:46.893Z,1019.24
2018-08-18T06:21:46.820Z,1019.26
2018-08-18T06:22:46.751Z,1019.14
2018-08-18T06:23:46.680Z,1018.98
2018-08-18T06:26:28.940Z,1019.10
2018-08-18T06:27:28.852Z,1019.04
2018-08-18T06:28:28.784Z,1019.27
2018-08-18T06:29:28.729Z,1019.35
2018-08-18T06:30:28.624Z,1019.26
2018-08-18T06:31:28.561Z,1019.04
2018-08-18T06:32:28.458Z,1019.41
2018-08-18T06:33:28.415Z,1019.37
2018-08-18T06:34:28.378Z,1019.26
2018-08-18T06:35:28.231Z,1019.10
2018-08-18T06:36:28.154Z,1019.43
2018-08-18T06:39:10.428Z,1019.41
2018-08-18T06:40:10.468Z,1019.44
2018-08-18T06:41:10.315Z,1019.48
2018-08-18T06:42:10.243Z,1019.48
2018-08-18T06:43:10.123Z,1019.38
2018-08-18T06:44:10.072Z,1019.45
2018-08-18T06:45:10.004Z,1019.43
2018-08-18T06:46:09.910Z,1019.43
2018-08-18T06:47:09.827Z,1019.15
2018-08-18T06:49:51.971Z,1019.53
2018-08-18T06:50:51.868Z,1019.57
2018-08-18T06:51:51.803Z,1019.57
2018-08-18T06:52:51.720Z,1019.59
2018-08-18T06:53:51.632Z,1019.21
2018-08-18T06:54:51.738Z,1019.34
2018-08-18T06:55:51.473Z,1019.59
2018-08-18T06:56:51.438Z,1019.58
2018-08-18T06:57:51.328Z,1019.59
2018-08-18T06:58:51.272Z,1019.55
2018-08-18T06:59:51.210Z,1019.58
2018-08-18T07:00:51.113Z,1019.57
2018-08-18T07:01:51.052Z,1019.18
2018-08-18T07:02:50.956Z,1019.16
2018-08-18T07:03:50.868Z,1019.47
2018-08-18T07:04:50.808Z,1019.24
2018-08-18T07:05:50.800Z,1019.50
2018-08-18T07:06:50.687Z,1019.39
2018-08-18T07:07:50.572Z,1019.26
2018-08-18T07:08:50.508Z,1019.37
2018-08-18T07:09:50.423Z,1019.41
2018-08-18T07:10:50.366Z,1019.40
2018-08-18T07:11:50.269Z,1019.37
2018-08-18T07:12:50.210Z,1019.40
2018-08-18T07:13:50.129Z,1019.35
2018-08-18T07:14:50.053Z,1019.35
2018-08-18T07:15:50.007Z,1019.38
2018-08-18T07:16:49.915Z,1019.33
2018-08-18T07:17:49.819Z,1019.36
2018-08-18T07:18:49.758Z,1019.48
2018-08-18T07:19:49.697Z,1019.55
2018-08-18T07:20:49.654Z,1019.57
2018-08-18T07:21:49.538Z,1019.56
2018-08-18T07:22:49.459Z,1019.55
2018-08-18T07:23:49.388Z,1019.48
2018-08-18T07:24:49.313Z,1019.50
2018-08-18T07:25:49.236Z,1019.54
2018-08-18T07:26:50.212Z,1019.64
2018-08-18T07:27:49.090Z,1019.65
2018-08-18T07:28:49.118Z,1019.45
2018-08-18T07:29:48.938Z,1019.28
2018-08-18T07:30:48.878Z,1019.24
2018-08-18T07:31:48.820Z,1019.22
2018-08-18T07:34:30.955Z,1019.22
2018-08-18T07:37:13.048Z,1019.26
2018-08-18T07:38:12.908Z,1019.23
2018-08-18T07:39:12.882Z,1019.24
2018-08-18T07:40:12.748Z,1019.30
2018-08-18T07:41:12.677Z,1019.33
2018-08-18T07:42:12.640Z,1019.33
2018-08-18T07:43:12.544Z,1019.33
2018-08-18T07:45:54.462Z,1019.37
2018-08-18T07:46:54.402Z,1019.34
2018-08-18T07:47:54.365Z,1019.35
2018-08-18T07:48:54.263Z,1019.34
2018-08-18T07:49:54.176Z,1019.33
2018-08-18T07:50:54.106Z,1019.30
2018-08-18T07:51:54.034Z,1019.33
2018-08-18T07:52:54.019Z,1019.28
2018-08-18T07:53:54.015Z,1019.30
2018-08-18T07:54:53.824Z,1019.32
2018-08-18T07:55:53.748Z,1019.31
2018-08-18T07:56:53.696Z,1019.36
2018-08-18T07:57:53.642Z,1019.36
2018-08-18T08:00:35.469Z,1019.40
2018-08-18T08:01:35.413Z,1019.39
2018-08-18T08:02:35.326Z,1019.37
2018-08-18T08:03:35.305Z,1019.40
2018-08-18T08:04:35.184Z,1019.41
2018-08-18T08:05:35.139Z,1019.46
2018-08-18T08:06:35.056Z,1019.49
2018-08-18T08:07:34.984Z,1019.47
2018-08-18T08:08:34.993Z,1019.48
2018-08-18T08:11:16.983Z,1019.50
2018-08-18T08:12:16.914Z,1019.51
2018-08-18T08:13:16.867Z,1019.55
2018-08-18T08:14:16.780Z,1019.55
2018-08-18T08:15:16.693Z,1019.57
2018-08-18T08:16:16.632Z,1019.55
2018-08-18T08:17:16.544Z,1019.53
2018-08-18T08:18:17.619Z,1019.56
2018-08-18T08:19:16.408Z,1019.59
2018-08-18T08:20:16.338Z,1019.56
2018-08-18T08:21:16.274Z,1019.62
2018-08-18T08:23:58.504Z,1019.76
2018-08-18T08:24:58.428Z,1019.71
2018-08-18T08:25:58.359Z,1019.75
2018-08-18T08:26:58.273Z,1019.72
2018-08-18T08:27:58.194Z,1019.72
2018-08-18T08:28:58.161Z,1019.74
2018-08-18T08:29:58.054Z,1019.79
2018-08-18T08:30:57.991Z,1019.75
2018-08-18T08:31:57.919Z,1019.77
2018-08-18T08:32:57.883Z,1019.74
2018-08-18T08:33:57.794Z,1019.77
2018-08-18T08:34:57.721Z,1019.74
2018-08-18T08:35:57.634Z,1019.74
2018-08-18T08:36:57.577Z,1019.77
2018-08-18T08:37:57.509Z,1019.82
2018-08-18T08:38:57.455Z,1019.85
2018-08-18T08:39:57.365Z,1019.82
2018-08-18T08:40:57.304Z,1019.79
2018-08-18T08:41:57.221Z,1019.83
2018-08-18T08:42:57.165Z,1019.85
2018-08-18T08:43:57.121Z,1019.87
2018-08-18T08:46:39.002Z,1019.82
2018-08-18T08:49:21.032Z,1019.85
2018-08-18T08:50:20.941Z,1019.75
2018-08-18T08:51:20.849Z,1019.78
2018-08-18T08:54:03.021Z,1019.94
2018-08-18T08:55:03.941Z,1019.94
2018-08-18T08:56:02.851Z,1019.91
2018-08-18T08:57:02.792Z,1019.87
2018-08-18T08:58:02.723Z,1019.85
2018-08-18T08:59:02.673Z,1019.91
2018-08-18T09:00:02.608Z,1019.90
2018-08-18T09:01:02.537Z,1019.92
2018-08-18T09:02:02.441Z,1019.94
2018-08-18T09:03:02.434Z,1019.94
2018-08-18T09:04:02.306Z,1019.93
2018-08-18T09:05:02.270Z,1019.96
2018-08-18T09:06:02.173Z,1020.00
2018-08-18T09:07:02.114Z,1019.95
2018-08-18T09:08:02.056Z,1019.96
2018-08-18T09:09:02.000Z,1019.93
2018-08-18T09:10:01.916Z,1019.96
2018-08-18T09:11:01.835Z,1019.96
2018-08-18T09:12:01.777Z,1019.98
2018-08-18T09:14:44.020Z,1019.99
2018-08-18T09:15:44.000Z,1019.97
2018-08-18T09:16:43.867Z,1019.93
2018-08-18T09:17:43.851Z,1019.94
2018-08-18T09:18:43.732Z,1019.96
2018-08-18T09:21:26.020Z,1019.93
2018-08-18T09:22:25.956Z,1019.95
2018-08-18T09:23:25.863Z,1019.92
2018-08-18T09:24:25.823Z,1019.93
2018-08-18T09:25:25.737Z,1019.97
2018-08-18T09:26:26.729Z,1019.95
2018-08-18T09:27:25.600Z,1019.98
2018-08-18T09:28:25.565Z,1019.96
2018-08-18T09:29:25.464Z,1020.01
2018-08-18T09:30:25.443Z,1020.00
2018-08-18T09:31:25.367Z,1019.94
2018-08-18T09:32:25.294Z,1019.94
2018-08-18T09:33:25.198Z,1019.92
2018-08-18T09:34:25.146Z,1019.92
2018-08-18T09:35:25.080Z,1019.93
2018-08-18T09:36:25.020Z,1019.84
2018-08-18T09:37:24.973Z,1019.91
2018-08-18T09:38:24.880Z,1019.92
2018-08-18T09:39:24.807Z,1019.84
2018-08-18T09:40:24.748Z,1019.83
2018-08-18T09:41:24.673Z,1019.80
2018-08-18T09:42:24.647Z,1019.82
2018-08-18T09:43:24.572Z,1019.79
2018-08-18T09:44:24.482Z,1019.81
2018-08-18T09:45:24.459Z,1019.77
2018-08-18T09:46:24.387Z,1019.82
2018-08-18T09:47:24.295Z,1019.81
2018-08-18T09:48:24.234Z,1019.83
2018-08-18T09:49:24.155Z,1019.77
2018-08-18T09:50:24.090Z,1019.83
2018-08-18T09:51:24.046Z,1019.85
2018-08-18T09:52:23.999Z,1019.83
2018-08-18T09:53:23.896Z,1019.81
2018-08-18T09:54:23.830Z,1019.82
2018-08-18T09:55:23.757Z,1019.79
2018-08-18T09:58:06.078Z,1019.80
2018-08-18T10:00:48.009Z,1019.79
2018-08-18T10:03:30.048Z,1019.76
2018-08-18T10:04:29.971Z,1019.83
2018-08-18T10:05:29.881Z,1019.81
2018-08-18T10:06:29.875Z,1019.76
2018-08-18T10:07:29.772Z,1019.81
2018-08-18T10:08:29.727Z,1019.78
2018-08-18T10:09:29.623Z,1019.80
2018-08-18T10:10:29.573Z,1019.78
2018-08-18T10:11:29.509Z,1019.84
2018-08-18T10:12:29.433Z,1019.77
2018-08-18T10:13:29.400Z,1019.89
2018-08-18T10:14:29.323Z,1019.58
2018-08-18T10:15:29.282Z,1019.76
2018-08-18T10:16:29.176Z,1019.68
2018-08-18T10:17:29.111Z,1019.68
2018-08-18T10:18:29.085Z,1019.53
2018-08-18T10:19:28.988Z,1019.72
2018-08-18T10:22:11.021Z,1019.87
2018-08-18T10:23:10.967Z,1019.69
2018-08-18T10:24:10.932Z,1019.87
2018-08-18T10:26:53.029Z,1019.92
2018-08-18T10:27:52.985Z,1019.79
2018-08-18T10:28:52.889Z,1019.38
2018-08-18T10:29:53.862Z,1019.85
2018-08-18T10:30:52.764Z,1019.63
2018-08-18T10:31:52.703Z,1019.82
2018-08-18T10:32:52.635Z,1019.80
2018-08-18T10:33:52.598Z,1019.70
2018-08-18T10:34:52.527Z,1019.72
2018-08-18T10:37:34.533Z,1019.78
2018-08-18T10:38:34.481Z,1019.38
2018-08-18T10:39:34.434Z,1019.35
2018-08-18T10:40:34.347Z,1019.53
2018-08-18T10:41:34.285Z,1019.12
2018-08-18T10:42:34.215Z,1019.72
2018-08-18T10:43:34.132Z,1019.48
2018-08-18T10:44:34.103Z,1019.55
2018-08-18T10:45:34.028Z,1019.17
2018-08-18T10:48:16.036Z,1019.05
2018-08-18T10:50:58.057Z,1019.71
2018-08-18T10:53:40.047Z,1019.35
2018-08-18T10:54:39.983Z,1019.53
2018-08-18T10:55:39.922Z,1018.99
2018-08-18T10:56:39.839Z,1019.37
2018-08-18T10:57:39.769Z,1019.41
2018-08-18T10:58:39.816Z,1019.57
2018-08-18T10:59:39.646Z,1019.29
2018-08-18T11:00:39.586Z,1019.32
2018-08-18T11:01:39.510Z,1019.39
2018-08-18T11:02:39.456Z,1019.57
2018-08-18T11:03:39.394Z,1019.61
2018-08-18T11:04:39.308Z,1018.99
2018-08-18T11:05:39.253Z,1019.01
2018-08-18T11:06:39.187Z,1019.12
2018-08-18T11:07:39.110Z,1019.29
2018-08-18T11:08:39.054Z,1019.06
2018-08-18T11:09:38.988Z,1019.64
2018-08-18T11:10:39.698Z,1019.72
2018-08-18T11:11:38.837Z,1019.54
2018-08-18T11:12:38.782Z,1019.15
2018-08-18T11:13:38.717Z,1019.14
2018-08-18T11:14:38.644Z,1019.20
2018-08-18T11:15:38.607Z,1019.38
2018-08-18T11:16:38.511Z,1019.55
2018-08-18T11:17:38.442Z,1019.08
2018-08-18T11:18:38.388Z,1019.13
2018-08-18T11:19:38.315Z,1019.40
2018-08-18T11:20:38.291Z,1019.21
2018-08-18T11:21:38.261Z,1019.06
2018-08-18T11:22:38.125Z,1019.12
2018-08-18T11:23:38.055Z,1019.18
2018-08-18T11:24:37.977Z,1019.60
2018-08-18T11:25:37.895Z,1019.75
2018-08-18T11:26:37.861Z,1019.78
2018-08-18T11:27:37.766Z,1019.81
2018-08-18T11:30:20.063Z,1019.60
2018-08-18T11:31:20.017Z,1019.79
2018-08-18T11:32:19.923Z,1019.69
2018-08-18T11:33:19.847Z,1019.74
2018-08-18T11:34:19.803Z,1019.71
2018-08-18T11:37:02.082Z,1019.84
2018-08-18T11:38:02.004Z,1019.87
2018-08-18T11:39:01.918Z,1019.80
2018-08-18T11:40:01.872Z,1019.75
2018-08-18T11:41:01.810Z,1019.76
2018-08-18T11:42:02.747Z,1019.57
2018-08-18T11:43:01.664Z,1019.60
2018-08-18T11:44:01.678Z,1019.23
2018-08-18T11:45:01.533Z,1019.78
2018-08-18T11:47:43.570Z,1019.90
2018-08-18T11:50:25.559Z,1019.86
2018-08-18T11:51:26.623Z,1019.84
2018-08-18T11:52:25.450Z,1019.71
2018-08-18T11:53:25.468Z,1019.15
2018-08-18T11:54:25.316Z,1018.78
2018-08-18T11:55:25.285Z,1018.84
2018-08-18T11:56:25.197Z,1018.82
2018-08-18T11:57:25.237Z,1018.77
2018-08-18T11:58:25.034Z,1018.73
2018-08-18T11:59:25.072Z,1018.77
2018-08-18T12:00:24.924Z,1018.68
2018-08-18T12:01:24.911Z,1018.70
2018-08-18T12:02:24.796Z,1018.75
2018-08-18T12:03:24.828Z,1018.77
2018-08-18T12:04:24.652Z,1018.79
2018-08-18T12:05:24.635Z,1018.70
2018-08-18T12:06:24.509Z,1018.73
2018-08-18T12:18:47.266Z,1018.64
2018-08-18T12:19:47.145Z,1018.63
2018-08-18T12:20:47.148Z,1018.66
2018-08-18T12:21:46.995Z,1018.61
2018-08-18T12:22:46.963Z,1018.67
2018-08-18T12:23:46.883Z,1018.63
2018-08-18T12:24:46.873Z,1018.57
2018-08-18T12:25:46.741Z,1018.53
2018-08-18T12:26:46.680Z,1018.48
2018-08-18T12:27:46.576Z,1018.48
2018-08-18T12:28:46.939Z,1018.62
2018-08-18T12:37:28.567Z,1018.45
2018-08-18T12:38:28.426Z,1018.42
2018-08-18T12:39:28.487Z,1018.45
2018-08-18T12:40:28.272Z,1018.44
2018-08-18T12:41:28.267Z,1018.41
2018-08-18T12:42:28.188Z,1018.41
2018-08-18T12:43:28.171Z,1018.36
2018-08-18T12:44:27.993Z,1018.34
2018-08-18T12:45:27.971Z,1018.36
2018-08-18T12:46:27.844Z,1018.28
2018-08-18T12:47:27.883Z,1018.30
2018-08-18T12:48:27.687Z,1018.30
2018-08-18T12:49:27.766Z,1018.25
2018-08-18T12:50:27.542Z,1018.25
2018-08-18T12:51:27.485Z,1018.28
2018-08-18T12:52:27.408Z,1018.31
2018-08-18T12:53:27.503Z,1018.31
2018-08-18T12:54:27.239Z,1018.26
2018-08-18T12:55:27.267Z,1018.23
2018-08-18T12:56:27.093Z,1018.27
2018-08-18T12:57:27.118Z,1018.24
2018-08-18T12:58:27.101Z,1018.23
2018-08-18T12:59:26.936Z,1018.20
2018-08-18T13:00:26.817Z,1018.21
2018-08-18T13:01:26.857Z,1018.19
2018-08-18T13:02:26.640Z,1018.16
2018-08-18T13:03:26.655Z,1018.13
2018-08-18T13:04:26.597Z,1018.14
2018-08-18T13:05:26.510Z,1018.19
2018-08-18T13:06:26.345Z,1018.16
2018-08-18T13:07:26.377Z,1018.12
2018-08-18T13:08:26.196Z,1018.06
2018-08-18T13:09:26.176Z,1018.05
2018-08-18T13:10:26.091Z,1018.07
2018-08-18T13:11:26.150Z,1018.07
2018-08-18T13:12:25.907Z,1018.11
2018-08-18T13:13:25.897Z,1018.03
2018-08-18T13:14:25.842Z,1018.02
2018-08-18T13:15:25.863Z,1018.02
2018-08-18T13:16:25.629Z,1018.03
2018-08-18T13:17:25.651Z,1017.98
2018-08-18T13:18:25.484Z,1017.97
2018-08-18T13:19:25.437Z,1017.98
2018-08-18T13:20:25.317Z,1018.01
2018-08-18T13:21:25.347Z,1018.02
2018-08-18T13:22:25.185Z,1018.06
2018-08-18T13:23:25.153Z,1017.99
2018-08-18T13:24:25.051Z,1018.04
2018-08-18T13:25:25.064Z,1017.96
2018-08-18T13:26:24.904Z,1017.99
2018-08-18T13:27:24.870Z,1017.95
2018-08-18T13:28:24.713Z,1018.00
2018-08-18T13:29:24.679Z,1018.02
2018-08-18T13:30:24.569Z,1018.01
2018-08-18T13:31:24.613Z,1017.96
2018-08-18T13:32:24.439Z,1017.95
2018-08-18T13:33:24.426Z,1017.93
2018-08-18T13:34:24.290Z,1017.92
2018-08-18T13:35:24.303Z,1017.88
2018-08-18T13:36:24.120Z,1017.84
2018-08-18T13:37:24.115Z,1017.86
2018-08-18T13:38:23.998Z,1017.85
2018-08-18T13:39:23.932Z,1017.81
2018-08-18T13:40:23.884Z,1017.88
2018-08-18T13:41:23.833Z,1017.85
2018-08-18T13:42:23.676Z,1017.86
2018-08-18T13:43:23.678Z,1017.85
2018-08-18T13:44:23.552Z,1017.89
2018-08-18T13:45:23.561Z,1017.86
2018-08-18T13:46:29.439Z,1017.83
2018-08-18T13:47:23.320Z,1017.84
2018-08-18T13:48:23.230Z,1017.82
2018-08-18T13:49:23.165Z,1017.81
2018-08-18T13:50:23.087Z,1017.76
2018-08-18T13:51:22.999Z,1017.80
2018-08-18T13:52:22.948Z,1017.78
2018-08-18T13:53:22.855Z,1017.74
2018-08-18T13:54:22.777Z,1017.73
2018-08-18T13:55:22.745Z,1017.76
2018-08-18T13:56:22.623Z,1017.76
2018-08-18T13:57:22.582Z,1017.73
2018-08-18T13:58:22.483Z,1017.73
2018-08-18T13:59:22.418Z,1017.75
2018-08-18T14:00:22.360Z,1017.76
2018-08-18T14:01:22.265Z,1017.69
2018-08-18T14:02:22.201Z,1017.72
2018-08-18T14:03:22.109Z,1017.73
2018-08-18T14:04:22.065Z,1017.73
2018-08-18T14:05:23.011Z,1017.73
2018-08-18T14:06:21.921Z,1017.72
2018-08-18T14:09:04.103Z,1017.64